Terminal Aerodrome Forecast
Issued by NWS Corpus Christi, TX

Home | Current Version | Previous Version | Text Only | Print | Product List | Glossary On
Versions: 1 2 3 4 5 6 7 8 9 10 11 12 13 14 15 16 17 18 19 20
000
FTUS44 KCRP 011726
TAFCRP
TAF
KCRP 011726Z 0118/0218 19013KT P6SM VCSH FEW004 BKN050 OVC070
      TEMPO 0118/0120 5SM SHRA BKN030
     FM012000 15016G22KT P6SM FEW025 SCT035 BKN150
     FM020200 14008KT P6SM FEW020 SCT150
     FM021100 15008KT P6SM SCT025 SCT150
      TEMPO 0211/0215 BKN025
     FM021500 16015KT P6SM FEW050 SCT150=

USA.gov is the U.S. government's official web portal to all federal, state and local government web resources and services.